Time;durP1;ratioP1;P1;durP2;ratioP2;P2;SDS_P1;SDS_P2;PMS_P1;PMS_P2;Temp;Humidity;BMP_temperature;BMP_pressure;BME280_temperature;BME280_humidity;BME280_pressure;Samples;Min_cycle;Max_cycle;Signal;HPM_P1;HPM_P2
2021/08/02 00:00:30;;;;;;;3.90;2.65;;;;;;;18.54;75.76;99071.03;5115546;28;20192;-77
2021/08/02 00:03:09;;;;;;;5.45;2.72;;;;;;;18.62;75.43;99068.41;5115258;28;20194;-77
2021/08/02 00:05:39;;;;;;;4.07;2.42;;;;;;;18.45;76.41;99064.66;5116198;28;20185;-77
2021/08/02 00:08:08;;;;;;;2.45;2.08;;;;;;;18.59;76.16;99073.28;5115509;28;20285;-77
2021/08/02 00:10:36;;;;;;;2.75;2.55;;;;;;;18.56;76.31;99069.00;5116413;28;20195;-77
2021/08/02 00:13:09;;;;;;;2.60;2.40;;;;;;;18.59;76.26;99073.28;5114338;28;20218;-73
2021/08/02 00:15:37;;;;;;;2.42;2.22;;;;;;;18.58;76.53;99074.31;5114537;28;20192;-73
2021/08/02 00:18:04;;;;;;;3.45;2.17;;;;;;;18.58;76.45;99069.72;5113858;28;20313;-73
2021/08/02 00:20:34;;;;;;;2.60;2.40;;;;;;;18.50;77.25;99069.63;5114689;28;20569;-73
2021/08/02 00:23:03;;;;;;;5.78;2.60;;;;;;;18.40;78.38;99066.09;5113845;28;20247;-73
2021/08/02 00:25:30;;;;;;;4.78;2.95;;;;;;;18.36;78.46;99070.13;5107879;28;20214;-73
2021/08/02 00:27:57;;;;;;;2.55;2.28;;;;;;;18.24;79.40;99072.22;5113426;28;20187;-73
2021/08/02 00:30:25;;;;;;;4.50;3.03;;;;;;;18.42;78.77;99072.25;5114058;28;20211;-73
2021/08/02 00:32:52;;;;;;;4.22;2.70;;;;;;;18.47;78.00;99072.66;5113949;28;20194;-72
2021/08/02 00:35:19;;;;;;;4.55;2.67;;;;;;;18.44;78.20;99070.25;5113684;28;20197;-72
2021/08/02 00:37:53;;;;;;;3.30;2.55;;;;;;;18.46;77.99;99079.13;5114000;28;20295;-72
2021/08/02 00:41:01;;;;;;;2.35;2.10;;;;;;;18.52;77.77;99076.66;5113998;28;20272;-73
2021/08/02 00:44:04;;;;;;;8.25;3.95;;;;;;;18.63;76.58;99081.03;5113944;28;20197;-73
2021/08/02 00:46:38;;;;;;;4.85;2.85;;;;;;;18.68;76.06;99075.13;5114159;28;20193;-73
2021/08/02 00:49:07;;;;;;;2.95;2.65;;;;;;;18.69;76.52;99074.09;5113862;28;20193;-73
2021/08/02 00:51:37;;;;;;;3.85;3.00;;;;;;;18.54;77.75;99069.19;5113464;28;20189;-74
2021/08/02 00:54:06;;;;;;;6.25;2.63;;;;;;;18.65;77.35;99068.09;5113711;28;20219;-73
2021/08/02 00:56:35;;;;;;;9.18;3.00;;;;;;;18.51;78.02;99068.63;5113418;28;20197;-73
2021/08/02 00:59:05;;;;;;;4.60;2.60;;;;;;;18.54;77.64;99069.19;5113121;28;20198;-73
2021/08/02 01:01:34;;;;;;;3.58;3.17;;;;;;;18.51;77.95;99069.47;5112943;28;20190;-73
2021/08/02 01:04:02;;;;;;;3.25;2.95;;;;;;;18.38;78.53;99062.66;5113909;28;20643;-72
2021/08/02 01:06:31;;;;;;;4.82;2.70;;;;;;;18.33;78.92;99060.41;5113555;28;20628;-73
2021/08/02 01:09:02;;;;;;;3.40;3.10;;;;;;;18.33;79.38;99071.28;5105878;28;20240;-74
2021/08/02 01:11:30;;;;;;;4.68;2.97;;;;;;;18.21;79.86;99067.06;5113291;28;20278;-73
2021/08/02 01:13:57;;;;;;;5.30;3.20;;;;;;;18.31;79.61;99067.88;5112958;28;20192;-75
2021/08/02 01:16:25;;;;;;;3.80;3.20;;;;;;;18.24;79.84;99073.06;5113310;28;20185;-74
2021/08/02 01:18:55;;;;;;;4.38;3.15;;;;;;;18.20;80.17;99065.34;5112509;28;20308;-73
2021/08/02 01:21:22;;;;;;;4.65;3.30;;;;;;;18.32;79.67;99080.50;5112765;28;20194;-74
2021/08/02 01:23:50;;;;;;;4.10;3.38;;;;;;;18.21;80.48;99073.38;5112901;28;20195;-73
2021/08/02 01:27:05;;;;;;;4.43;2.85;;;;;;;18.24;80.09;99078.50;5113373;28;20196;-73
2021/08/02 01:30:09;;;;;;;4.18;3.20;;;;;;;18.18;80.63;99079.13;5052417;28;20229;-73
2021/08/02 01:32:35;;;;;;;5.38;3.20;;;;;;;18.25;80.74;99074.78;5108031;28;20192;-72
2021/08/02 01:35:02;;;;;;;5.22;3.30;;;;;;;18.35;80.11;99074.72;5113348;28;20219;-73
2021/08/02 01:37:29;;;;;;;4.50;3.63;;;;;;;18.36;79.90;99071.00;5112627;28;20288;-74
2021/08/02 01:39:57;;;;;;;3.05;2.75;;;;;;;18.27;80.11;99074.63;5113134;28;20593;-74
2021/08/02 01:42:23;;;;;;;5.20;2.95;;;;;;;18.26;80.47;99076.50;5113442;28;20185;-75
2021/08/02 01:44:50;;;;;;;4.03;2.78;;;;;;;18.32;80.04;99075.91;5113220;28;20196;-73
2021/08/02 01:47:25;;;;;;;6.05;3.28;;;;;;;18.31;80.37;99089.66;5112780;28;20196;-73
2021/08/02 01:49:59;;;;;;;4.13;3.08;;;;;;;18.16;80.78;99085.72;5113331;28;20627;-73
2021/08/02 01:52:31;;;;;;;5.25;3.30;;;;;;;18.08;80.79;99089.19;5105928;28;20267;-73
2021/08/02 01:55:03;;;;;;;3.25;2.95;;;;;;;18.24;80.39;99086.69;5113263;28;20304;-73
2021/08/02 01:57:37;;;;;;;3.70;3.05;;;;;;;18.34;79.65;99083.94;5113227;28;20202;-73
2021/08/02 02:00:09;;;;;;;4.22;3.30;;;;;;;18.50;79.03;99077.81;5113088;28;20968;-73
2021/08/02 02:02:38;;;;;;;5.10;2.90;;;;;;;18.41;79.81;99082.31;5112866;28;20228;-74
2021/08/02 02:05:08;;;;;;;4.38;3.00;;;;;;;18.23;80.93;99090.44;5112268;28;20193;-74
2021/08/02 02:07:45;;;;;;;3.78;3.00;;;;;;;18.21;81.32;99081.53;5113093;28;20657;-74
2021/08/02 02:10:15;;;;;;;4.80;3.05;;;;;;;18.38;80.40;99081.75;5113237;28;20310;-74
2021/08/02 02:12:44;;;;;;;6.30;3.25;;;;;;;18.19;80.93;99075.38;5112775;28;20189;-72
2021/08/02 02:15:12;;;;;;;4.10;2.83;;;;;;;18.08;81.60;99081.88;5112725;28;20598;-73
2021/08/02 02:17:40;;;;;;;4.72;2.95;;;;;;;18.08;81.73;99078.31;5111940;28;20269;-71
2021/08/02 02:20:07;;;;;;;4.07;3.20;;;;;;;17.96;82.09;99077.63;5112913;28;20195;-73
2021/08/02 02:22:45;;;;;;;3.00;2.70;;;;;;;18.16;80.94;99074.81;5112710;28;20253;-73
2021/08/02 02:25:14;;;;;;;3.30;3.00;;;;;;;18.18;80.56;99078.25;5112910;28;20228;-73
2021/08/02 02:27:42;;;;;;;2.90;2.70;;;;;;;18.26;80.45;99076.50;5112973;28;20181;-74
2021/08/02 02:30:10;;;;;;;4.60;3.00;;;;;;;18.43;79.23;99080.28;5112483;28;20283;-73
2021/08/02 02:32:38;;;;;;;3.85;2.80;;;;;;;18.42;78.85;99069.53;5112721;28;20952;-73
2021/08/02 02:35:07;;;;;;;5.75;3.45;;;;;;;18.49;78.55;99070.63;5112495;28;20598;-73
2021/08/02 02:37:34;;;;;;;3.75;3.35;;;;;;;18.37;79.20;99072.72;5112089;28;20270;-73
2021/08/02 02:40:01;;;;;;;4.25;3.10;;;;;;;18.21;80.21;99078.81;5112511;28;20562;-73
2021/08/02 02:42:30;;;;;;;5.28;3.00;;;;;;;18.13;80.74;99086.88;5112017;28;20287;-72
2021/08/02 02:44:58;;;;;;;4.07;3.25;;;;;;;17.95;81.88;99075.91;5111990;28;20207;-74
2021/08/02 02:47:26;;;;;;;4.40;3.90;;;;;;;17.97;82.44;99078.50;5112353;28;20281;-73
2021/08/02 02:49:54;;;;;;;3.75;3.35;;;;;;;18.05;81.90;99081.34;5105639;28;20619;-73
2021/08/02 02:52:21;;;;;;;4.10;2.83;;;;;;;18.10;81.70;99090.75;5116229;28;20199;-74
2021/08/02 02:54:51;;;;;;;3.55;2.80;;;;;;;18.11;81.68;99089.78;5116410;28;20623;-73
2021/08/02 02:57:17;;;;;;;3.28;2.97;;;;;;;18.08;81.51;99090.03;5116639;28;20556;-73
2021/08/02 02:59:46;;;;;;;7.22;3.50;;;;;;;17.85;83.12;99088.72;5116337;28;20196;-73
2021/08/02 03:02:14;;;;;;;5.05;3.25;;;;;;;17.72;84.41;99091.72;5116740;28;20631;-73
2021/08/02 03:04:45;;;;;;;6.03;3.08;;;;;;;17.63;85.08;99089.88;5115998;28;20192;-73
2021/08/02 03:07:14;;;;;;;5.40;3.40;;;;;;;17.68;84.90;99095.72;5116328;28;20639;-73
2021/08/02 03:09:42;;;;;;;6.18;3.40;;;;;;;17.67;84.80;99094.88;5116522;28;20652;-74
2021/08/02 03:12:09;;;;;;;5.60;3.65;;;;;;;17.85;84.12;99086.84;5116301;28;20195;-73
2021/08/02 03:14:37;;;;;;;7.25;3.28;;;;;;;18.01;82.09;99091.66;5116584;28;20199;-74
2021/08/02 03:17:08;;;;;;;4.15;3.20;;;;;;;18.05;82.07;99094.97;5108445;28;20878;-74
2021/08/02 03:19:35;;;;;;;4.13;3.35;;;;;;;18.00;81.93;99089.97;5115800;28;20197;-73
2021/08/02 03:22:08;;;;;;;4.82;2.92;;;;;;;18.02;82.60;99096.13;5115717;28;20184;-74
2021/08/02 03:24:41;;;;;;;3.78;3.13;;;;;;;18.11;82.89;99094.34;5115758;28;20186;-74
2021/08/02 03:27:17;;;;;;;4.35;3.35;;;;;;;18.18;83.05;99089.16;5115901;28;20184;-74
2021/08/02 03:29:48;;;;;;;6.65;3.42;;;;;;;18.12;83.26;99091.47;5115677;28;20620;-73
2021/08/02 03:32:18;;;;;;;4.82;3.05;;;;;;;18.16;82.69;99097.50;5108340;28;20280;-74
2021/08/02 03:34:51;;;;;;;4.57;3.10;;;;;;;18.14;82.67;99091.34;5115926;28;20284;-73
2021/08/02 03:37:20;;;;;;;4.05;3.60;;;;;;;18.02;82.86;99087.94;5108312;28;20272;-73
2021/08/02 03:39:48;;;;;;;5.32;3.33;;;;;;;17.98;83.68;99099.28;5115844;28;20308;-73
2021/08/02 03:42:16;;;;;;;3.95;3.25;;;;;;;17.88;84.51;99093.84;5107521;28;20195;-72
2021/08/02 03:44:43;;;;;;;5.15;3.85;;;;;;;17.88;84.55;99110.19;5115828;28;20208;-73
2021/08/02 03:47:10;;;;;;;13.05;4.05;;;;;;;17.77;84.93;99108.47;5115860;28;20201;-73
2021/08/02 03:49:38;;;;;;;4.93;2.90;;;;;;;17.54;86.17;99112.53;5115381;28;20287;-73
2021/08/02 03:52:05;;;;;;;3.75;3.40;;;;;;;17.53;86.53;99111.69;5115468;28;20611;-74
2021/08/02 03:54:32;;;;;;;7.65;4.00;;;;;;;17.51;86.24;99110.97;5115569;28;20194;-73
2021/08/02 03:57:01;;;;;;;4.43;3.28;;;;;;;17.29;87.62;99109.41;5115462;28;20195;-73
2021/08/02 03:59:29;;;;;;;5.45;4.18;;;;;;;17.31;88.11;99115.56;5114905;28;20286;-73
2021/08/02 04:01:56;;;;;;;4.30;3.78;;;;;;;17.51;86.54;99119.13;5115434;28;20663;-73
2021/08/02 04:04:22;;;;;;;6.03;3.50;;;;;;;17.51;86.64;99119.13;5114665;28;20466;-73
2021/08/02 04:06:50;;;;;;;6.90;3.65;;;;;;;17.52;86.28;99120.81;5115231;28;20570;-73
2021/08/02 04:09:17;;;;;;;3.80;3.40;;;;;;;17.54;85.88;99117.97;5114596;28;20199;-73
2021/08/02 04:11:45;;;;;;;5.65;3.95;;;;;;;17.47;86.57;99118.53;5114999;28;20275;-73
2021/08/02 04:14:12;;;;;;;5.95;4.30;;;;;;;17.60;85.96;99125.56;5115314;28;20660;-73
2021/08/02 04:16:39;;;;;;;6.28;4.75;;;;;;;17.62;85.53;99131.72;5114631;28;20196;-72
2021/08/02 04:19:06;;;;;;;50.40;13.70;;;;;;;17.70;85.24;99130.00;5114177;28;20234;-74
2021/08/02 04:21:33;;;;;;;10.07;5.40;;;;;;;17.64;84.75;99130.56;5114894;28;20202;-73
2021/08/02 04:24:01;;;;;;;6.00;4.45;;;;;;;17.83;84.39;99131.56;5115089;28;20646;-73
2021/08/02 04:26:28;;;;;;;7.53;4.45;;;;;;;17.88;83.79;99134.69;5114582;28;20541;-73
2021/08/02 04:28:56;;;;;;;6.45;4.40;;;;;;;17.74;84.57;99130.53;5114527;28;20637;-72
2021/08/02 04:31:24;;;;;;;9.45;6.13;;;;;;;17.73;85.67;99134.28;5114732;28;20245;-74
2021/08/02 04:33:51;;;;;;;8.77;5.18;;;;;;;17.81;86.05;99139.88;5114985;28;20191;-72
2021/08/02 04:36:18;;;;;;;9.27;4.70;;;;;;;17.80;87.11;99135.41;5114501;28;20207;-72
2021/08/02 04:38:45;;;;;;;7.35;5.30;;;;;;;17.85;87.29;99137.72;5114424;28;20291;-73
2021/08/02 04:41:13;;;;;;;5.78;4.20;;;;;;;17.91;87.08;99138.00;5115065;28;20187;-74
2021/08/02 04:43:39;;;;;;;5.43;4.50;;;;;;;17.77;87.08;99132.97;5114192;28;20292;-73
2021/08/02 04:46:06;;;;;;;7.25;4.28;;;;;;;17.63;89.49;99136.16;5114798;28;20206;-73
2021/08/02 04:48:33;;;;;;;7.03;4.63;;;;;;;17.64;89.40;99127.84;5114039;28;20184;-72
2021/08/02 04:50:59;;;;;;;6.25;4.25;;;;;;;17.45;91.23;99136.03;5114593;28;20198;-73
2021/08/02 04:53:26;;;;;;;8.65;5.00;;;;;;;17.55;91.68;99131.44;5114099;28;20536;-76
2021/08/02 04:55:53;;;;;;;10.00;5.05;;;;;;;17.66;91.23;99117.69;5114497;28;20233;-74
2021/08/02 04:58:21;;;;;;;7.45;4.50;;;;;;;17.51;91.58;99125.41;5114214;28;20241;-73
2021/08/02 05:00:47;;;;;;;4.47;3.85;;;;;;;17.46;91.44;99119.56;5114024;28;20267;-73
2021/08/02 05:03:14;;;;;;;6.50;4.10;;;;;;;17.48;91.81;99130.31;5113562;28;20230;-75
2021/08/02 05:05:40;;;;;;;4.90;4.40;;;;;;;17.59;91.30;99129.28;5113820;28;20191;-74
2021/08/02 05:08:07;;;;;;;7.93;4.95;;;;;;;17.61;91.73;99127.28;5114187;28;20229;-74
2021/08/02 05:10:34;;;;;;;7.65;5.18;;;;;;;17.52;92.16;99131.72;5113942;28;20289;-73
2021/08/02 05:13:00;;;;;;;8.80;4.80;;;;;;;17.54;91.01;99120.69;5112722;28;20195;-72
2021/08/02 05:15:29;;;;;;;7.80;6.88;;;;;;;17.47;92.28;99125.84;5114411;28;20618;-73
2021/08/02 05:17:56;;;;;;;11.23;8.73;;;;;;;17.55;91.89;99125.13;5113826;28;20239;-74
2021/08/02 05:20:22;;;;;;;11.73;9.27;;;;;;;17.48;92.58;99124.88;5114471;28;20188;-73
2021/08/02 05:22:50;;;;;;;9.43;8.52;;;;;;;17.59;92.30;99124.72;5114312;28;20190;-73
2021/08/02 05:25:17;;;;;;;10.65;8.30;;;;;;;17.60;92.34;99123.69;5113158;28;20207;-72
2021/08/02 05:27:48;;;;;;;9.30;8.25;;;;;;;17.90;89.55;99130.81;5113711;28;20195;-73
2021/08/02 05:30:16;;;;;;;8.27;7.40;;;;;;;18.05;87.83;99124.91;5114157;28;20541;-73
2021/08/02 05:32:46;;;;;;;8.52;7.63;;;;;;;18.03;88.81;99125.06;5113443;28;20193;-72
2021/08/02 05:35:15;;;;;;;9.65;8.00;;;;;;;18.09;88.70;99129.91;5113807;28;20226;-72
2021/08/02 05:37:42;;;;;;;8.68;7.32;;;;;;;17.88;89.06;99142.88;5113604;28;20191;-73
2021/08/02 05:40:10;;;;;;;12.05;9.35;;;;;;;17.88;89.07;99135.56;5114006;28;20208;-73
2021/08/02 05:42:36;;;;;;;8.57;7.63;;;;;;;18.11;89.72;99137.94;5113386;28;20360;-73
2021/08/02 05:45:03;;;;;;;6.63;6.00;;;;;;;18.24;86.88;99138.44;5113789;28;20669;-73
2021/08/02 05:47:30;;;;;;;5.35;4.85;;;;;;;18.31;85.72;99144.16;5112910;28;20289;-73
2021/08/02 05:49:58;;;;;;;7.35;5.80;;;;;;;18.45;85.00;99140.97;5113777;28;20209;-73
2021/08/02 05:52:24;;;;;;;5.45;4.95;;;;;;;18.50;83.51;99146.81;5113655;28;20683;-73
2021/08/02 05:54:51;;;;;;;8.32;5.20;;;;;;;18.58;83.71;99139.75;5113091;28;20234;-73
2021/08/02 05:57:20;;;;;;;6.82;5.70;;;;;;;18.64;84.70;99145.44;5113661;28;20185;-73
2021/08/02 05:59:47;;;;;;;5.97;4.70;;;;;;;18.63;84.16;99148.31;5113487;28;20678;-74
2021/08/02 06:02:13;;;;;;;5.50;5.00;;;;;;;18.54;84.86;99140.06;5113476;28;20203;-73
2021/08/02 06:04:40;;;;;;;5.45;4.72;;;;;;;18.60;84.72;99143.19;5113208;28;20260;-73
2021/08/02 06:07:08;;;;;;;7.55;4.57;;;;;;;18.66;83.68;99151.63;5113572;28;20607;-73
2021/08/02 06:09:35;;;;;;;6.38;5.75;;;;;;;18.70;82.67;99163.06;5113046;28;20186;-75
2021/08/02 06:12:02;;;;;;;6.07;4.85;;;;;;;18.70;82.59;99163.94;5113449;28;20193;-73
2021/08/02 06:14:28;;;;;;;7.13;5.78;;;;;;;18.79;82.69;99169.50;5113304;28;20281;-74
2021/08/02 06:16:55;;;;;;;7.75;6.43;;;;;;;18.66;81.33;99164.41;5113094;28;20188;-75
2021/08/02 06:19:22;;;;;;;10.65;7.00;;;;;;;18.66;81.75;99164.41;5112365;28;20255;-74
2021/08/02 06:21:48;;;;;;;7.55;6.95;;;;;;;18.69;81.99;99170.38;5112987;28;20185;-72
2021/08/02 06:24:17;;;;;;;7.43;6.63;;;;;;;18.59;82.62;99176.88;5112196;28;20200;-73
2021/08/02 06:26:43;;;;;;;8.38;7.63;;;;;;;18.78;82.04;99179.56;5112632;28;20273;-73
2021/08/02 06:29:10;;;;;;;8.63;7.70;;;;;;;18.82;81.61;99174.69;5113327;28;20541;-73
2021/08/02 06:31:39;;;;;;;8.75;7.82;;;;;;;18.85;81.04;99177.09;5112625;28;20275;-73
2021/08/02 06:34:05;;;;;;;9.63;8.73;;;;;;;18.91;80.62;99179.22;5112918;28;20226;-74
2021/08/02 06:36:32;;;;;;;10.93;8.45;;;;;;;19.09;79.20;99185.56;5113319;28;20220;-74
2021/08/02 06:38:59;;;;;;;11.27;9.30;;;;;;;19.16;78.85;99183.06;5112983;28;20245;-74
2021/08/02 06:41:27;;;;;;;9.27;8.40;;;;;;;19.44;78.02;99191.19;5113142;28;20293;-74
2021/08/02 06:43:53;;;;;;;10.00;8.75;;;;;;;19.63;76.94;99201.97;5112727;28;20270;-74
2021/08/02 06:46:20;;;;;;;12.88;11.70;;;;;;;19.78;75.91;99192.22;5113404;28;20198;-72
2021/08/02 06:48:47;;;;;;;10.43;9.32;;;;;;;19.84;75.52;99190.72;5112898;28;20197;-74
2021/08/02 06:51:14;;;;;;;10.93;9.85;;;;;;;19.98;74.34;99195.63;5113263;28;20209;-74
2021/08/02 06:53:40;;;;;;;10.73;9.68;;;;;;;20.07;73.87;99196.53;5112468;28;20325;-74
2021/08/02 06:56:07;;;;;;;10.73;9.63;;;;;;;20.23;73.10;99203.13;5112971;28;20190;-73
2021/08/02 06:58:35;;;;;;;13.27;10.10;;;;;;;20.31;73.57;99203.22;5113275;28;21037;-73
2021/08/02 07:01:01;;;;;;;12.15;9.05;;;;;;;20.37;72.67;99195.22;5112989;28;20290;-73
2021/08/02 07:03:28;;;;;;;10.85;9.80;;;;;;;20.29;72.82;99194.31;5113586;28;20657;-74
2021/08/02 07:05:55;;;;;;;10.17;9.27;;;;;;;20.48;72.53;99205.00;5113381;28;20191;-73
2021/08/02 07:08:21;;;;;;;10.93;9.90;;;;;;;20.59;70.69;99196.53;5113269;28;20986;-74
2021/08/02 07:10:48;;;;;;;13.00;10.23;;;;;;;20.71;69.35;99199.00;5113237;28;20471;-74
2021/08/02 07:13:15;;;;;;;10.17;9.27;;;;;;;20.72;70.47;99204.31;5111570;28;20498;-74
2021/08/02 07:15:42;;;;;;;11.37;10.13;;;;;;;20.77;71.43;99207.41;5112695;28;20436;-72
2021/08/02 07:18:09;;;;;;;10.57;9.50;;;;;;;20.89;69.22;99207.97;5112432;28;20567;-73
2021/08/02 07:20:36;;;;;;;10.43;9.43;;;;;;;21.15;67.76;99202.41;5112951;28;20929;-72
2021/08/02 07:23:03;;;;;;;9.13;8.27;;;;;;;21.76;65.16;99204.94;5112793;28;20913;-74
2021/08/02 07:25:30;;;;;;;13.40;10.87;;;;;;;21.86;65.71;99198.25;5112829;28;20440;-74
2021/08/02 07:27:59;;;;;;;12.13;10.93;;;;;;;22.21;65.13;99201.69;5112565;28;20436;-73
2021/08/02 07:30:26;;;;;;;12.50;9.87;;;;;;;22.00;63.61;99196.72;5112485;28;20521;-72
2021/08/02 07:32:54;;;;;;;11.17;9.77;;;;;;;21.70;64.79;99203.72;5112623;28;20441;-73
2021/08/02 07:35:20;;;;;;;8.83;8.00;;;;;;;21.48;64.57;99205.25;5112657;28;20429;-74
2021/08/02 07:37:47;;;;;;;7.60;6.83;;;;;;;21.45;64.19;99200.13;5116081;28;20789;-74
2021/08/02 07:40:14;;;;;;;6.10;5.50;;;;;;;21.02;65.47;99200.13;5116243;28;20923;-73
2021/08/02 07:42:41;;;;;;;6.33;5.73;;;;;;;20.96;65.95;99199.94;5115673;28;20436;-73
2021/08/02 07:45:08;;;;;;;4.83;4.43;;;;;;;20.86;65.82;99204.72;5115953;28;20878;-73
2021/08/02 07:47:35;;;;;;;5.47;4.97;;;;;;;20.95;65.09;99199.09;5116491;28;20417;-73
2021/08/02 07:50:04;;;;;;;5.40;4.90;;;;;;;20.45;66.95;99208.06;5115442;28;20437;-73
2021/08/02 07:52:31;;;;;;;13.77;11.43;;;;;;;20.77;67.02;99212.03;5116142;28;21176;-73
2021/08/02 07:54:58;;;;;;;5.07;4.68;;;;;;;21.20;64.94;99210.13;5116100;28;20448;-74
2021/08/02 07:57:25;;;;;;;5.00;4.50;;;;;;;21.47;63.64;99209.03;5115711;28;20279;-73
2021/08/02 07:59:51;;;;;;;5.83;5.33;;;;;;;21.57;63.51;99209.75;5115973;28;20924;-73
2021/08/02 08:02:18;;;;;;;5.37;4.50;;;;;;;21.45;63.75;99214.66;5116049;28;21190;-73
2021/08/02 08:04:45;;;;;;;5.93;5.00;;;;;;;21.37;64.49;99208.28;5115624;28;20429;-73
2021/08/02 08:07:13;;;;;;;5.80;5.20;;;;;;;21.36;64.88;99204.69;5115952;28;20794;-73
2021/08/02 08:09:39;;;;;;;6.00;4.70;;;;;;;21.48;64.55;99212.59;5116459;28;20414;-72
2021/08/02 08:12:07;;;;;;;5.10;4.63;;;;;;;22.34;61.01;99217.63;5116429;28;20431;-73
2021/08/02 08:14:33;;;;;;;6.07;4.77;;;;;;;22.53;59.76;99218.28;5115312;28;21353;-72
2021/08/02 08:17:00;;;;;;;8.47;4.53;;;;;;;22.37;59.76;99208.19;5115659;28;20429;-72
2021/08/02 08:19:26;;;;;;;4.17;3.77;;;;;;;22.34;60.15;99209.41;5115645;28;20480;-73
2021/08/02 08:21:53;;;;;;;7.33;4.30;;;;;;;22.53;60.25;99207.28;5115422;28;20519;-73
2021/08/02 08:24:21;;;;;;;7.23;5.00;;;;;;;22.39;60.61;99208.88;5115883;28;20516;-73
2021/08/02 08:26:48;;;;;;;4.83;4.33;;;;;;;22.45;59.77;99209.03;5116003;28;20844;-72
2021/08/02 08:29:14;;;;;;;4.80;4.40;;;;;;;21.63;61.99;99208.19;5116385;28;20994;-73
2021/08/02 08:31:41;;;;;;;4.40;4.03;;;;;;;21.28;63.90;99204.69;5116386;28;20421;-74
2021/08/02 08:34:07;;;;;;;5.57;4.93;;;;;;;21.03;65.01;99203.75;5116404;28;20842;-73
2021/08/02 08:36:35;;;;;;;4.37;4.00;;;;;;;21.39;63.75;99200.75;5115793;28;20413;-72
2021/08/02 08:39:04;;;;;;;4.40;4.07;;;;;;;21.62;63.37;99199.13;5115757;28;20511;-74
2021/08/02 08:41:32;;;;;;;5.03;4.53;;;;;;;21.82;63.13;99202.38;5115642;28;20426;-72
2021/08/02 08:43:59;;;;;;;5.47;3.60;;;;;;;21.52;62.86;99197.56;5115750;28;20437;-72
2021/08/02 08:46:26;;;;;;;6.97;4.53;;;;;;;21.00;65.21;99199.44;5115911;28;20866;-72
2021/08/02 08:48:52;;;;;;;4.90;4.50;;;;;;;20.94;65.71;99197.41;5114733;28;20435;-74
2021/08/02 08:51:20;;;;;;;6.37;4.30;;;;;;;21.12;65.42;99199.13;5116084;28;20443;-74
2021/08/02 08:53:47;;;;;;;10.43;6.83;;;;;;;21.20;65.71;99196.44;5115436;28;20528;-74
2021/08/02 08:56:16;;;;;;;6.10;3.90;;;;;;;20.94;65.82;99202.88;5115879;28;20426;-74
2021/08/02 08:58:45;;;;;;;4.90;3.93;;;;;;;21.30;64.13;99201.75;5115396;28;20770;-74
2021/08/02 09:01:12;;;;;;;4.33;3.43;;;;;;;21.62;61.24;99199.13;5115643;28;20473;-73
2021/08/02 09:03:50;;;;;;;8.37;4.80;;;;;;;22.47;59.15;99201.47;5115621;28;20483;-74
2021/08/02 09:06:17;;;;;;;3.77;3.47;;;;;;;22.88;57.20;99203.22;5115449;28;20445;-74
2021/08/02 09:08:45;;;;;;;3.30;3.10;;;;;;;23.25;56.12;99191.56;5116134;28;20419;-74
2021/08/02 09:11:18;;;;;;;4.80;4.00;;;;;;;23.62;54.50;99194.59;5115672;28;20441;-74
2021/08/02 09:13:49;;;;;;;4.03;3.63;;;;;;;23.96;53.07;99193.31;5115139;28;20528;-74
2021/08/02 09:16:20;;;;;;;5.63;3.13;;;;;;;23.54;54.01;99198.25;5114991;28;20472;-74
2021/08/02 09:18:57;;;;;;;3.77;3.43;;;;;;;23.69;53.70;99193.66;5115166;28;20480;-74
2021/08/02 09:21:23;;;;;;;10.10;3.63;;;;;;;23.55;53.51;99193.63;5114776;28;20440;-74
2021/08/02 09:23:52;;;;;;;4.33;3.93;;;;;;;23.93;53.30;99203.66;5115557;28;20463;-75
2021/08/02 09:26:29;;;;;;;4.30;3.27;;;;;;;24.04;51.21;99196.00;5115506;28;20443;-74
2021/08/02 09:28:58;;;;;;;3.70;2.77;;;;;;;24.52;50.09;99191.94;5114934;28;20509;-74
2021/08/02 09:31:33;;;;;;;7.53;2.77;;;;;;;24.92;48.62;99202.66;5114957;28;20436;-75
2021/08/02 09:34:02;;;;;;;4.80;2.93;;;;;;;24.97;49.08;99200.19;5115338;28;20909;-74
2021/08/02 09:36:37;;;;;;;3.57;2.17;;;;;;;24.88;48.62;99193.91;5115149;28;20950;-74
2021/08/02 09:39:08;;;;;;;4.90;2.70;;;;;;;23.83;51.47;99197.53;5114779;28;20461;-74
2021/08/02 09:41:35;;;;;;;5.07;3.43;;;;;;;23.90;52.40;99198.53;5114890;28;20932;-73
2021/08/02 09:44:05;;;;;;;3.43;3.13;;;;;;;23.80;52.01;99191.56;5114982;28;20486;-74
2021/08/02 09:46:31;;;;;;;5.10;4.43;;;;;;;24.13;51.99;99187.50;5094972;28;20820;-73
2021/08/02 09:49:02;;;;;;;3.97;3.13;;;;;;;24.68;50.32;99182.63;5094031;28;20537;-74
2021/08/02 09:51:42;;;;;;;4.10;3.70;;;;;;;24.58;50.32;99190.31;5094307;28;20437;-74
2021/08/02 09:54:09;;;;;;;6.50;3.30;;;;;;;25.11;49.34;99185.50;5110363;28;20436;-74
2021/08/02 09:56:37;;;;;;;3.43;3.17;;;;;;;25.05;49.40;99180.78;5115030;28;20531;-74
2021/08/02 09:59:07;;;;;;;3.93;2.73;;;;;;;24.33;50.72;99182.31;5114023;28;20435;-75
2021/08/02 10:01:34;;;;;;;11.67;3.27;;;;;;;23.83;52.33;99182.94;5114641;28;20470;-74
2021/08/02 10:04:01;;;;;;;8.93;2.87;;;;;;;23.25;54.45;99182.47;5114391;28;20437;-74
2021/08/02 10:06:28;;;;;;;4.27;3.70;;;;;;;23.48;53.62;99193.50;5114416;28;20508;-73
2021/08/02 10:08:56;;;;;;;4.33;3.33;;;;;;;23.29;53.54;99187.44;5114189;28;20437;-74
2021/08/02 10:11:22;;;;;;;4.00;3.53;;;;;;;23.97;51.59;99195.03;5114219;28;20785;-74
2021/08/02 10:13:50;;;;;;;5.53;5.03;;;;;;;24.22;50.71;99188.28;5094363;28;20434;-74
2021/08/02 10:16:19;;;;;;;3.60;2.80;;;;;;;23.96;52.45;99194.16;5093833;28;20446;-75
2021/08/02 10:18:49;;;;;;;3.63;3.07;;;;;;;24.21;51.95;99183.78;5093777;28;20477;-75
2021/08/02 10:21:17;;;;;;;4.20;3.37;;;;;;;24.10;50.93;99178.75;5093824;28;20505;-76
2021/08/02 10:23:43;;;;;;;3.73;3.00;;;;;;;23.83;52.42;99178.28;5093968;28;20436;-74
2021/08/02 10:26:20;;;;;;;3.10;2.90;;;;;;;24.37;49.77;99180.00;5093997;28;20856;-75
2021/08/02 10:28:52;;;;;;;2.90;2.60;;;;;;;24.61;48.56;99170.66;5094225;28;20426;-74
2021/08/02 10:31:20;;;;;;;9.73;4.73;;;;;;;24.44;50.00;99180.97;5094057;28;20436;-76
2021/08/02 10:33:47;;;;;;;3.80;3.37;;;;;;;25.37;47.80;99175.88;5093795;28;20429;-74
2021/08/02 10:36:15;;;;;;;3.20;2.93;;;;;;;25.51;47.12;99169.47;5093706;28;20418;-73
2021/08/02 10:38:45;;;;;;;7.10;2.80;;;;;;;25.29;46.93;99159.47;5111879;28;20441;-74
2021/08/02 10:41:23;;;;;;;11.17;3.47;;;;;;;24.23;49.41;99170.72;5114335;28;21025;-73
2021/08/02 10:43:49;;;;;;;3.60;2.90;;;;;;;23.67;50.27;99160.00;5114445;28;20428;-74
2021/08/02 10:46:18;;;;;;;4.50;3.20;;;;;;;24.06;49.19;99160.91;5113940;28;20559;-73
2021/08/02 10:48:47;;;;;;;3.93;3.20;;;;;;;24.19;48.85;99163.03;5114300;28;20431;-74
2021/08/02 10:51:16;;;;;;;5.00;2.63;;;;;;;24.14;49.94;99156.19;5113895;28;20904;-74
2021/08/02 10:53:43;;;;;;;6.33;2.87;;;;;;;24.48;49.34;99157.56;5114036;28;20447;-74
2021/08/02 10:56:10;;;;;;;3.33;3.03;;;;;;;24.30;48.75;99155.16;5113644;28;20428;-73
2021/08/02 10:58:39;;;;;;;3.80;2.93;;;;;;;25.14;46.44;99152.06;5113943;28;20417;-74
2021/08/02 11:01:11;;;;;;;3.70;3.20;;;;;;;25.21;47.07;99145.81;5113591;28;20480;-74
2021/08/02 11:03:39;;;;;;;3.00;2.60;;;;;;;25.47;46.38;99142.50;5113746;28;20436;-73
2021/08/02 11:06:16;;;;;;;3.40;3.20;;;;;;;24.68;47.59;99146.84;5113537;28;20782;-73
2021/08/02 11:08:54;;;;;;;4.50;3.77;;;;;;;24.58;48.43;99157.31;5113657;28;20433;-74
2021/08/02 11:11:26;;;;;;;4.50;3.33;;;;;;;24.89;48.50;99147.94;5115467;28;20431;-76
2021/08/02 11:14:04;;;;;;;4.87;3.33;;;;;;;25.04;48.92;99161.72;5117466;28;20520;-74
2021/08/02 11:16:31;;;;;;;3.80;3.50;;;;;;;24.84;49.54;99167.81;5117696;28;20879;-73
2021/08/02 11:18:57;;;;;;;4.57;3.10;;;;;;;23.44;53.22;99165.50;5117359;28;21060;-75
2021/08/02 11:21:27;;;;;;;2.57;2.33;;;;;;;22.47;57.62;99182.25;5117611;28;20488;-74
2021/08/02 11:23:55;;;;;;;3.20;2.40;;;;;;;21.50;62.35;99184.03;5117686;28;20425;-74
2021/08/02 11:26:23;;;;;;;2.70;2.50;;;;;;;21.09;64.61;99181.19;5117624;28;20520;-72
2021/08/02 11:28:55;;;;;;;3.63;2.97;;;;;;;21.15;66.23;99175.03;5116944;28;20448;-73
2021/08/02 11:31:26;;;;;;;3.33;3.03;;;;;;;21.35;66.65;99169.28;5117126;28;20460;-73
2021/08/02 11:33:53;;;;;;;3.63;3.13;;;;;;;21.88;64.79;99173.41;5117570;28;20421;-74
2021/08/02 11:36:22;;;;;;;3.63;2.77;;;;;;;22.43;61.19;99171.81;5116989;28;20432;-72
2021/08/02 11:38:51;;;;;;;3.70;3.07;;;;;;;21.48;63.82;99163.31;5117100;28;20512;-73